sensor_id;sensor_type;location;lat;lon;timestamp;P1;durP1;ratioP1;P2;durP2;ratioP2
12135;SDS011;6131;56.420;15.548;2022-11-25T00:00:44;20.50;;;9.73;;
12135;SDS011;6131;56.420;15.548;2022-11-25T00:03:10;25.13;;;9.97;;
12135;SDS011;6131;56.420;15.548;2022-11-25T00:05:36;21.07;;;10.93;;
12135;SDS011;6131;56.420;15.548;2022-11-25T00:08:02;21.23;;;10.90;;
12135;SDS011;6131;56.420;15.548;2022-11-25T00:10:28;17.67;;;9.47;;
12135;SDS011;6131;56.420;15.548;2022-11-25T00:12:54;21.63;;;10.93;;
12135;SDS011;6131;56.420;15.548;2022-11-25T00:15:20;20.07;;;10.63;;
12135;SDS011;6131;56.420;15.548;2022-11-25T00:17:46;21.13;;;10.43;;
12135;SDS011;6131;56.420;15.548;2022-11-25T00:20:12;18.93;;;9.93;;
12135;SDS011;6131;56.420;15.548;2022-11-25T00:22:38;18.13;;;9.90;;
12135;SDS011;6131;56.420;15.548;2022-11-25T00:25:04;15.80;;;9.37;;
12135;SDS011;6131;56.420;15.548;2022-11-25T00:27:30;23.07;;;9.57;;
12135;SDS011;6131;56.420;15.548;2022-11-25T00:29:56;17.73;;;10.20;;
12135;SDS011;6131;56.420;15.548;2022-11-25T00:32:22;17.43;;;9.73;;
12135;SDS011;6131;56.420;15.548;2022-11-25T00:34:48;18.43;;;10.17;;
12135;SDS011;6131;56.420;15.548;2022-11-25T00:37:14;20.70;;;9.83;;
12135;SDS011;6131;56.420;15.548;2022-11-25T00:39:40;18.90;;;8.60;;
12135;SDS011;6131;56.420;15.548;2022-11-25T00:42:07;16.43;;;8.97;;
12135;SDS011;6131;56.420;15.548;2022-11-25T00:44:52;18.10;;;9.57;;
12135;SDS011;6131;56.420;15.548;2022-11-25T00:47:18;18.07;;;9.13;;
12135;SDS011;6131;56.420;15.548;2022-11-25T00:49:46;15.77;;;8.83;;
12135;SDS011;6131;56.420;15.548;2022-11-25T00:52:13;15.37;;;8.83;;
12135;SDS011;6131;56.420;15.548;2022-11-25T00:54:39;14.47;;;8.87;;
12135;SDS011;6131;56.420;15.548;2022-11-25T00:57:05;15.40;;;8.37;;
12135;SDS011;6131;56.420;15.548;2022-11-25T01:02:35;16.30;;;8.50;;
12135;SDS011;6131;56.420;15.548;2022-11-25T01:05:00;15.87;;;9.03;;
12135;SDS011;6131;56.420;15.548;2022-11-25T01:07:26;15.60;;;8.13;;
12135;SDS011;6131;56.420;15.548;2022-11-25T01:09:52;14.63;;;8.43;;
12135;SDS011;6131;56.420;15.548;2022-11-25T01:12:19;14.77;;;8.30;;
12135;SDS011;6131;56.420;15.548;2022-11-25T01:14:45;13.07;;;7.37;;
12135;SDS011;6131;56.420;15.548;2022-11-25T01:17:11;14.90;;;8.33;;
12135;SDS011;6131;56.420;15.548;2022-11-25T01:19:37;15.57;;;7.93;;
12135;SDS011;6131;56.420;15.548;2022-11-25T01:22:04;14.93;;;7.57;;
12135;SDS011;6131;56.420;15.548;2022-11-25T01:24:30;11.93;;;7.53;;
12135;SDS011;6131;56.420;15.548;2022-11-25T01:26:56;12.57;;;7.80;;
12135;SDS011;6131;56.420;15.548;2022-11-25T01:29:22;11.47;;;6.43;;
12135;SDS011;6131;56.420;15.548;2022-11-25T01:31:49;13.40;;;7.33;;
12135;SDS011;6131;56.420;15.548;2022-11-25T01:34:16;13.60;;;7.23;;
12135;SDS011;6131;56.420;15.548;2022-11-25T01:36:43;11.37;;;6.90;;
12135;SDS011;6131;56.420;15.548;2022-11-25T01:39:15;13.53;;;7.70;;
12135;SDS011;6131;56.420;15.548;2022-11-25T01:41:42;12.03;;;7.20;;
12135;SDS011;6131;56.420;15.548;2022-11-25T01:44:16;12.10;;;6.97;;
12135;SDS011;6131;56.420;15.548;2022-11-25T01:49:12;13.37;;;6.80;;
12135;SDS011;6131;56.420;15.548;2022-11-25T01:51:40;13.23;;;6.77;;
12135;SDS011;6131;56.420;15.548;2022-11-25T01:54:08;11.97;;;6.40;;
12135;SDS011;6131;56.420;15.548;2022-11-25T01:56:41;12.27;;;6.77;;
12135;SDS011;6131;56.420;15.548;2022-11-25T01:59:08;11.67;;;6.40;;
12135;SDS011;6131;56.420;15.548;2022-11-25T02:01:34;10.63;;;6.43;;
12135;SDS011;6131;56.420;15.548;2022-11-25T02:04:00;10.40;;;6.30;;
12135;SDS011;6131;56.420;15.548;2022-11-25T02:06:28;11.47;;;6.37;;
12135;SDS011;6131;56.420;15.548;2022-11-25T02:08:57;9.50;;;5.90;;
12135;SDS011;6131;56.420;15.548;2022-11-25T02:11:24;9.40;;;6.00;;
12135;SDS011;6131;56.420;15.548;2022-11-25T02:13:51;11.67;;;6.17;;
12135;SDS011;6131;56.420;15.548;2022-11-25T02:16:18;11.10;;;6.70;;
12135;SDS011;6131;56.420;15.548;2022-11-25T02:18:44;12.07;;;6.07;;
12135;SDS011;6131;56.420;15.548;2022-11-25T02:21:10;11.27;;;6.60;;
12135;SDS011;6131;56.420;15.548;2022-11-25T02:23:39;10.73;;;6.03;;
12135;SDS011;6131;56.420;15.548;2022-11-25T02:26:08;11.87;;;6.43;;
12135;SDS011;6131;56.420;15.548;2022-11-25T02:28:34;11.47;;;6.40;;
12135;SDS011;6131;56.420;15.548;2022-11-25T02:31:01;11.73;;;7.30;;
12135;SDS011;6131;56.420;15.548;2022-11-25T02:33:27;10.60;;;6.00;;
12135;SDS011;6131;56.420;15.548;2022-11-25T02:36:05;12.00;;;6.10;;
12135;SDS011;6131;56.420;15.548;2022-11-25T02:38:43;10.23;;;6.07;;
12135;SDS011;6131;56.420;15.548;2022-11-25T02:43:37;10.43;;;7.00;;
12135;SDS011;6131;56.420;15.548;2022-11-25T02:46:04;9.63;;;6.63;;
12135;SDS011;6131;56.420;15.548;2022-11-25T02:48:32;10.20;;;6.13;;
12135;SDS011;6131;56.420;15.548;2022-11-25T02:50:58;10.73;;;5.83;;
12135;SDS011;6131;56.420;15.548;2022-11-25T02:53:24;9.80;;;6.27;;
12135;SDS011;6131;56.420;15.548;2022-11-25T02:55:51;9.53;;;5.60;;
12135;SDS011;6131;56.420;15.548;2022-11-25T02:58:17;9.57;;;5.50;;
12135;SDS011;6131;56.420;15.548;2022-11-25T03:00:43;9.57;;;5.57;;
12135;SDS011;6131;56.420;15.548;2022-11-25T03:03:10;7.93;;;5.23;;
12135;SDS011;6131;56.420;15.548;2022-11-25T03:05:36;9.40;;;5.47;;
12135;SDS011;6131;56.420;15.548;2022-11-25T03:08:02;9.63;;;5.67;;
12135;SDS011;6131;56.420;15.548;2022-11-25T03:10:28;9.17;;;6.07;;
12135;SDS011;6131;56.420;15.548;2022-11-25T03:12:55;8.40;;;5.47;;
12135;SDS011;6131;56.420;15.548;2022-11-25T03:15:20;8.30;;;5.53;;
12135;SDS011;6131;56.420;15.548;2022-11-25T03:17:46;8.40;;;5.17;;
12135;SDS011;6131;56.420;15.548;2022-11-25T03:20:13;8.97;;;5.90;;
12135;SDS011;6131;56.420;15.548;2022-11-25T03:22:39;8.07;;;5.07;;
12135;SDS011;6131;56.420;15.548;2022-11-25T03:25:06;10.13;;;5.73;;
12135;SDS011;6131;56.420;15.548;2022-11-25T03:27:32;11.73;;;4.80;;
12135;SDS011;6131;56.420;15.548;2022-11-25T03:29:58;8.33;;;5.33;;
12135;SDS011;6131;56.420;15.548;2022-11-25T03:32:24;10.27;;;6.33;;
12135;SDS011;6131;56.420;15.548;2022-11-25T03:34:51;9.10;;;6.27;;
12135;SDS011;6131;56.420;15.548;2022-11-25T03:37:17;9.20;;;6.10;;
12135;SDS011;6131;56.420;15.548;2022-11-25T03:39:43;10.83;;;6.30;;
12135;SDS011;6131;56.420;15.548;2022-11-25T03:42:09;9.30;;;6.00;;
12135;SDS011;6131;56.420;15.548;2022-11-25T03:44:35;9.37;;;5.57;;
12135;SDS011;6131;56.420;15.548;2022-11-25T03:47:01;15.80;;;5.90;;
12135;SDS011;6131;56.420;15.548;2022-11-25T03:49:27;9.50;;;5.37;;
12135;SDS011;6131;56.420;15.548;2022-11-25T03:51:53;10.20;;;6.20;;
12135;SDS011;6131;56.420;15.548;2022-11-25T03:54:19;10.43;;;5.83;;
12135;SDS011;6131;56.420;15.548;2022-11-25T03:56:45;9.50;;;5.87;;
12135;SDS011;6131;56.420;15.548;2022-11-25T03:59:11;10.30;;;6.37;;
12135;SDS011;6131;56.420;15.548;2022-11-25T04:01:37;13.03;;;6.87;;
12135;SDS011;6131;56.420;15.548;2022-11-25T04:04:03;12.53;;;6.97;;
12135;SDS011;6131;56.420;15.548;2022-11-25T04:06:29;9.03;;;6.20;;
12135;SDS011;6131;56.420;15.548;2022-11-25T04:08:56;15.27;;;6.30;;
12135;SDS011;6131;56.420;15.548;2022-11-25T04:11:22;12.33;;;6.87;;
12135;SDS011;6131;56.420;15.548;2022-11-25T04:14:11;11.03;;;7.10;;
12135;SDS011;6131;56.420;15.548;2022-11-25T04:16:37;10.67;;;6.83;;
12135;SDS011;6131;56.420;15.548;2022-11-25T04:19:03;11.20;;;7.03;;
12135;SDS011;6131;56.420;15.548;2022-11-25T04:21:29;13.00;;;7.00;;
12135;SDS011;6131;56.420;15.548;2022-11-25T04:23:55;12.37;;;6.77;;
12135;SDS011;6131;56.420;15.548;2022-11-25T04:26:21;11.20;;;6.87;;
12135;SDS011;6131;56.420;15.548;2022-11-25T04:28:47;10.63;;;6.80;;
12135;SDS011;6131;56.420;15.548;2022-11-25T04:31:13;13.57;;;7.57;;
12135;SDS011;6131;56.420;15.548;2022-11-25T04:33:39;13.07;;;6.87;;
12135;SDS011;6131;56.420;15.548;2022-11-25T04:36:05;14.00;;;7.27;;
12135;SDS011;6131;56.420;15.548;2022-11-25T04:38:31;11.83;;;7.20;;
12135;SDS011;6131;56.420;15.548;2022-11-25T04:40:57;11.27;;;7.13;;
12135;SDS011;6131;56.420;15.548;2022-11-25T04:43:23;13.97;;;8.33;;
12135;SDS011;6131;56.420;15.548;2022-11-25T04:45:49;11.27;;;7.33;;
12135;SDS011;6131;56.420;15.548;2022-11-25T04:48:17;13.67;;;8.33;;
12135;SDS011;6131;56.420;15.548;2022-11-25T04:50:43;12.07;;;8.13;;
12135;SDS011;6131;56.420;15.548;2022-11-25T04:53:09;12.97;;;7.93;;
12135;SDS011;6131;56.420;15.548;2022-11-25T04:55:35;12.67;;;7.30;;
12135;SDS011;6131;56.420;15.548;2022-11-25T04:58:01;13.03;;;7.30;;
12135;SDS011;6131;56.420;15.548;2022-11-25T05:00:27;13.80;;;8.60;;
12135;SDS011;6131;56.420;15.548;2022-11-25T05:02:53;12.47;;;7.80;;
12135;SDS011;6131;56.420;15.548;2022-11-25T05:05:19;12.20;;;7.30;;
12135;SDS011;6131;56.420;15.548;2022-11-25T05:07:45;12.80;;;8.37;;
12135;SDS011;6131;56.420;15.548;2022-11-25T05:10:11;12.63;;;8.33;;
12135;SDS011;6131;56.420;15.548;2022-11-25T05:12:37;14.07;;;7.83;;
12135;SDS011;6131;56.420;15.548;2022-11-25T05:15:04;12.60;;;7.70;;
12135;SDS011;6131;56.420;15.548;2022-11-25T05:17:30;13.70;;;7.97;;
12135;SDS011;6131;56.420;15.548;2022-11-25T05:19:56;10.77;;;7.23;;
12135;SDS011;6131;56.420;15.548;2022-11-25T05:22:24;12.23;;;8.17;;
12135;SDS011;6131;56.420;15.548;2022-11-25T05:24:50;12.23;;;7.97;;
12135;SDS011;6131;56.420;15.548;2022-11-25T05:27:16;11.93;;;7.40;;
12135;SDS011;6131;56.420;15.548;2022-11-25T05:29:43;11.37;;;8.00;;
12135;SDS011;6131;56.420;15.548;2022-11-25T05:32:09;10.40;;;7.57;;
12135;SDS011;6131;56.420;15.548;2022-11-25T05:34:35;11.33;;;7.70;;
12135;SDS011;6131;56.420;15.548;2022-11-25T05:37:02;11.63;;;7.50;;
12135;SDS011;6131;56.420;15.548;2022-11-25T05:39:28;13.97;;;7.70;;
12135;SDS011;6131;56.420;15.548;2022-11-25T05:41:54;12.70;;;7.53;;
12135;SDS011;6131;56.420;15.548;2022-11-25T05:44:20;13.90;;;8.17;;
12135;SDS011;6131;56.420;15.548;2022-11-25T05:46:46;11.20;;;7.40;;
12135;SDS011;6131;56.420;15.548;2022-11-25T05:49:16;12.27;;;7.90;;
12135;SDS011;6131;56.420;15.548;2022-11-25T05:51:42;10.13;;;6.93;;
12135;SDS011;6131;56.420;15.548;2022-11-25T05:54:08;12.53;;;7.80;;
12135;SDS011;6131;56.420;15.548;2022-11-25T05:56:34;13.07;;;8.07;;
12135;SDS011;6131;56.420;15.548;2022-11-25T05:59:00;13.23;;;7.23;;
12135;SDS011;6131;56.420;15.548;2022-11-25T06:01:26;10.73;;;7.47;;
12135;SDS011;6131;56.420;15.548;2022-11-25T06:03:53;11.90;;;7.37;;
12135;SDS011;6131;56.420;15.548;2022-11-25T06:06:19;11.50;;;6.70;;
12135;SDS011;6131;56.420;15.548;2022-11-25T06:08:45;11.97;;;7.40;;
12135;SDS011;6131;56.420;15.548;2022-11-25T06:11:12;12.73;;;7.70;;
12135;SDS011;6131;56.420;15.548;2022-11-25T06:13:40;12.67;;;8.10;;
12135;SDS011;6131;56.420;15.548;2022-11-25T06:16:07;11.83;;;7.47;;
12135;SDS011;6131;56.420;15.548;2022-11-25T06:18:34;10.77;;;7.57;;
12135;SDS011;6131;56.420;15.548;2022-11-25T06:21:00;10.87;;;7.77;;
12135;SDS011;6131;56.420;15.548;2022-11-25T06:23:26;11.60;;;8.00;;
12135;SDS011;6131;56.420;15.548;2022-11-25T06:25:52;11.27;;;7.10;;
12135;SDS011;6131;56.420;15.548;2022-11-25T06:28:18;11.37;;;6.97;;
12135;SDS011;6131;56.420;15.548;2022-11-25T06:30:44;13.57;;;8.00;;
12135;SDS011;6131;56.420;15.548;2022-11-25T06:33:10;10.33;;;6.87;;
12135;SDS011;6131;56.420;15.548;2022-11-25T06:35:36;11.67;;;7.17;;
12135;SDS011;6131;56.420;15.548;2022-11-25T06:38:02;9.80;;;6.80;;
12135;SDS011;6131;56.420;15.548;2022-11-25T06:40:28;9.90;;;6.97;;
12135;SDS011;6131;56.420;15.548;2022-11-25T06:42:54;10.73;;;6.83;;
12135;SDS011;6131;56.420;15.548;2022-11-25T06:45:20;11.37;;;7.00;;
12135;SDS011;6131;56.420;15.548;2022-11-25T06:47:46;9.90;;;6.73;;
12135;SDS011;6131;56.420;15.548;2022-11-25T06:50:12;10.97;;;7.03;;
12135;SDS011;6131;56.420;15.548;2022-11-25T06:52:38;10.57;;;6.60;;
12135;SDS011;6131;56.420;15.548;2022-11-25T06:55:04;9.83;;;7.07;;
12135;SDS011;6131;56.420;15.548;2022-11-25T06:57:30;9.83;;;6.53;;
12135;SDS011;6131;56.420;15.548;2022-11-25T06:59:56;10.20;;;7.07;;
12135;SDS011;6131;56.420;15.548;2022-11-25T07:02:22;12.40;;;7.00;;
12135;SDS011;6131;56.420;15.548;2022-11-25T07:04:48;9.20;;;6.27;;
12135;SDS011;6131;56.420;15.548;2022-11-25T07:07:14;14.03;;;6.40;;
12135;SDS011;6131;56.420;15.548;2022-11-25T07:09:40;14.67;;;6.73;;
12135;SDS011;6131;56.420;15.548;2022-11-25T07:12:06;8.40;;;5.80;;
12135;SDS011;6131;56.420;15.548;2022-11-25T07:14:32;8.97;;;6.33;;
12135;SDS011;6131;56.420;15.548;2022-11-25T07:16:58;9.73;;;6.27;;
12135;SDS011;6131;56.420;15.548;2022-11-25T07:19:24;11.20;;;6.23;;
12135;SDS011;6131;56.420;15.548;2022-11-25T07:21:50;10.03;;;6.13;;
12135;SDS011;6131;56.420;15.548;2022-11-25T07:24:17;9.63;;;5.70;;
12135;SDS011;6131;56.420;15.548;2022-11-25T07:26:43;9.77;;;5.73;;
12135;SDS011;6131;56.420;15.548;2022-11-25T07:29:11;10.50;;;5.90;;
12135;SDS011;6131;56.420;15.548;2022-11-25T07:31:39;11.23;;;6.63;;
12135;SDS011;6131;56.420;15.548;2022-11-25T07:34:13;9.70;;;6.40;;
12135;SDS011;6131;56.420;15.548;2022-11-25T07:36:41;9.23;;;6.10;;
12135;SDS011;6131;56.420;15.548;2022-11-25T07:39:09;12.00;;;6.30;;
12135;SDS011;6131;56.420;15.548;2022-11-25T07:41:35;9.63;;;6.97;;
12135;SDS011;6131;56.420;15.548;2022-11-25T07:44:03;9.33;;;5.93;;
12135;SDS011;6131;56.420;15.548;2022-11-25T07:46:30;9.30;;;6.23;;
12135;SDS011;6131;56.420;15.548;2022-11-25T07:48:57;14.13;;;6.53;;
12135;SDS011;6131;56.420;15.548;2022-11-25T07:51:26;9.30;;;6.10;;
12135;SDS011;6131;56.420;15.548;2022-11-25T07:53:54;8.67;;;6.37;;
12135;SDS011;6131;56.420;15.548;2022-11-25T07:56:20;10.53;;;6.47;;
12135;SDS011;6131;56.420;15.548;2022-11-25T07:58:46;11.37;;;6.67;;
12135;SDS011;6131;56.420;15.548;2022-11-25T08:01:13;10.07;;;6.00;;
12135;SDS011;6131;56.420;15.548;2022-11-25T08:03:40;9.37;;;6.33;;
12135;SDS011;6131;56.420;15.548;2022-11-25T08:06:07;10.20;;;6.23;;
12135;SDS011;6131;56.420;15.548;2022-11-25T08:08:34;9.73;;;6.47;;
12135;SDS011;6131;56.420;15.548;2022-11-25T08:11:00;11.97;;;6.47;;
12135;SDS011;6131;56.420;15.548;2022-11-25T08:13:30;11.40;;;6.60;;
12135;SDS011;6131;56.420;15.548;2022-11-25T08:15:57;10.73;;;5.93;;
12135;SDS011;6131;56.420;15.548;2022-11-25T08:18:24;10.30;;;6.67;;
12135;SDS011;6131;56.420;15.548;2022-11-25T08:20:50;9.67;;;6.07;;
12135;SDS011;6131;56.420;15.548;2022-11-25T08:23:16;12.97;;;6.70;;
12135;SDS011;6131;56.420;15.548;2022-11-25T08:25:42;9.87;;;6.30;;
12135;SDS011;6131;56.420;15.548;2022-11-25T08:28:08;10.13;;;6.67;;
12135;SDS011;6131;56.420;15.548;2022-11-25T08:30:34;8.70;;;6.10;;
12135;SDS011;6131;56.420;15.548;2022-11-25T08:33:00;10.17;;;6.17;;
12135;SDS011;6131;56.420;15.548;2022-11-25T08:35:29;8.83;;;6.13;;
12135;SDS011;6131;56.420;15.548;2022-11-25T08:37:55;12.20;;;6.93;;
12135;SDS011;6131;56.420;15.548;2022-11-25T08:40:21;11.77;;;6.90;;
12135;SDS011;6131;56.420;15.548;2022-11-25T08:42:47;9.13;;;5.33;;
12135;SDS011;6131;56.420;15.548;2022-11-25T08:45:13;8.77;;;5.93;;
12135;SDS011;6131;56.420;15.548;2022-11-25T08:47:39;11.60;;;6.23;;
12135;SDS011;6131;56.420;15.548;2022-11-25T08:50:06;10.57;;;6.60;;
12135;SDS011;6131;56.420;15.548;2022-11-25T08:52:32;10.47;;;6.87;;
12135;SDS011;6131;56.420;15.548;2022-11-25T08:54:58;10.30;;;5.67;;
12135;SDS011;6131;56.420;15.548;2022-11-25T08:57:24;7.73;;;5.73;;
12135;SDS011;6131;56.420;15.548;2022-11-25T08:59:50;8.07;;;5.60;;
12135;SDS011;6131;56.420;15.548;2022-11-25T09:02:16;8.77;;;5.97;;
12135;SDS011;6131;56.420;15.548;2022-11-25T09:04:42;10.37;;;6.23;;
12135;SDS011;6131;56.420;15.548;2022-11-25T09:07:09;7.90;;;5.70;;
12135;SDS011;6131;56.420;15.548;2022-11-25T09:09:35;10.07;;;5.63;;
12135;SDS011;6131;56.420;15.548;2022-11-25T09:12:01;11.93;;;5.97;;
12135;SDS011;6131;56.420;15.548;2022-11-25T09:14:27;9.97;;;6.57;;
12135;SDS011;6131;56.420;15.548;2022-11-25T09:16:53;9.23;;;6.07;;
12135;SDS011;6131;56.420;15.548;2022-11-25T09:19:21;9.50;;;6.33;;
12135;SDS011;6131;56.420;15.548;2022-11-25T09:21:47;9.13;;;6.33;;
12135;SDS011;6131;56.420;15.548;2022-11-25T09:24:13;9.00;;;6.53;;
12135;SDS011;6131;56.420;15.548;2022-11-25T09:26:39;10.83;;;6.50;;
12135;SDS011;6131;56.420;15.548;2022-11-25T09:29:06;8.53;;;6.23;;
12135;SDS011;6131;56.420;15.548;2022-11-25T09:31:32;9.47;;;5.97;;
12135;SDS011;6131;56.420;15.548;2022-11-25T09:33:58;12.13;;;6.33;;
12135;SDS011;6131;56.420;15.548;2022-11-25T09:36:24;9.77;;;6.30;;
12135;SDS011;6131;56.420;15.548;2022-11-25T09:38:50;9.70;;;6.03;;
12135;SDS011;6131;56.420;15.548;2022-11-25T09:41:20;8.93;;;5.93;;
12135;SDS011;6131;56.420;15.548;2022-11-25T09:44:13;10.10;;;6.13;;
12135;SDS011;6131;56.420;15.548;2022-11-25T09:47:03;7.73;;;5.73;;
12135;SDS011;6131;56.420;15.548;2022-11-25T09:59:36;9.13;;;5.87;;
12135;SDS011;6131;56.420;15.548;2022-11-25T10:02:12;8.53;;;5.90;;
12135;SDS011;6131;56.420;15.548;2022-11-25T10:04:42;9.03;;;5.57;;
12135;SDS011;6131;56.420;15.548;2022-11-25T10:07:13;9.30;;;5.90;;
12135;SDS011;6131;56.420;15.548;2022-11-25T10:09:42;9.40;;;6.37;;
12135;SDS011;6131;56.420;15.548;2022-11-25T10:12:22;10.07;;;6.33;;
12135;SDS011;6131;56.420;15.548;2022-11-25T10:14:59;8.17;;;5.53;;
12135;SDS011;6131;56.420;15.548;2022-11-25T10:17:35;10.37;;;5.80;;
12135;SDS011;6131;56.420;15.548;2022-11-25T10:20:10;7.33;;;4.80;;
12135;SDS011;6131;56.420;15.548;2022-11-25T10:22:41;8.67;;;5.43;;
12135;SDS011;6131;56.420;15.548;2022-11-25T10:30:11;9.73;;;5.53;;
12135;SDS011;6131;56.420;15.548;2022-11-25T10:32:47;8.83;;;5.97;;
12135;SDS011;6131;56.420;15.548;2022-11-25T10:35:18;6.63;;;4.90;;
12135;SDS011;6131;56.420;15.548;2022-11-25T10:37:45;8.83;;;5.27;;
12135;SDS011;6131;56.420;15.548;2022-11-25T10:40:16;8.87;;;4.77;;
12135;SDS011;6131;56.420;15.548;2022-11-25T10:42:42;7.00;;;5.20;;
12135;SDS011;6131;56.420;15.548;2022-11-25T10:45:09;7.40;;;4.90;;
12135;SDS011;6131;56.420;15.548;2022-11-25T10:50:19;8.30;;;4.67;;
12135;SDS011;6131;56.420;15.548;2022-11-25T10:52:59;7.00;;;4.57;;
12135;SDS011;6131;56.420;15.548;2022-11-25T10:55:26;6.13;;;4.43;;
12135;SDS011;6131;56.420;15.548;2022-11-25T10:57:53;7.13;;;4.57;;
12135;SDS011;6131;56.420;15.548;2022-11-25T11:02:48;7.00;;;4.77;;
12135;SDS011;6131;56.420;15.548;2022-11-25T11:07:46;6.03;;;4.33;;
12135;SDS011;6131;56.420;15.548;2022-11-25T11:10:20;5.30;;;3.90;;
12135;SDS011;6131;56.420;15.548;2022-11-25T11:12:57;6.90;;;4.57;;
12135;SDS011;6131;56.420;15.548;2022-11-25T11:15:24;5.77;;;3.97;;
12135;SDS011;6131;56.420;15.548;2022-11-25T11:17:52;7.17;;;4.23;;
12135;SDS011;6131;56.420;15.548;2022-11-25T11:20:20;7.90;;;4.20;;
12135;SDS011;6131;56.420;15.548;2022-11-25T11:23:09;6.90;;;4.03;;
12135;SDS011;6131;56.420;15.548;2022-11-25T11:25:34;6.77;;;4.03;;
12135;SDS011;6131;56.420;15.548;2022-11-25T11:28:01;6.63;;;4.40;;
12135;SDS011;6131;56.420;15.548;2022-11-25T11:30:29;4.90;;;3.40;;
12135;SDS011;6131;56.420;15.548;2022-11-25T11:32:57;6.50;;;3.47;;
12135;SDS011;6131;56.420;15.548;2022-11-25T11:37:50;4.53;;;3.33;;
12135;SDS011;6131;56.420;15.548;2022-11-25T11:40:21;5.13;;;3.77;;
12135;SDS011;6131;56.420;15.548;2022-11-25T11:48:25;4.53;;;3.40;;
12135;SDS011;6131;56.420;15.548;2022-11-25T11:50:58;6.17;;;3.73;;
12135;SDS011;6131;56.420;15.548;2022-11-25T11:53:29;5.07;;;3.60;;
12135;SDS011;6131;56.420;15.548;2022-11-25T12:01:22;5.77;;;4.37;;
12135;SDS011;6131;56.420;15.548;2022-11-25T12:03:55;5.03;;;3.87;;
12135;SDS011;6131;56.420;15.548;2022-11-25T12:06:22;6.63;;;3.40;;
12135;SDS011;6131;56.420;15.548;2022-11-25T12:08:53;5.60;;;4.07;;
12135;SDS011;6131;56.420;15.548;2022-11-25T12:11:24;5.70;;;3.70;;
12135;SDS011;6131;56.420;15.548;2022-11-25T12:13:59;7.73;;;4.40;;
12135;SDS011;6131;56.420;15.548;2022-11-25T12:16:43;7.17;;;4.47;;
12135;SDS011;6131;56.420;15.548;2022-11-25T12:19:14;6.43;;;4.60;;
12135;SDS011;6131;56.420;15.548;2022-11-25T12:21:54;8.93;;;4.90;;
12135;SDS011;6131;56.420;15.548;2022-11-25T12:26:53;6.63;;;4.70;;
12135;SDS011;6131;56.420;15.548;2022-11-25T12:29:41;9.20;;;4.47;;
12135;SDS011;6131;56.420;15.548;2022-11-25T12:34:52;6.07;;;4.23;;
12135;SDS011;6131;56.420;15.548;2022-11-25T12:37:35;7.30;;;4.50;;
12135;SDS011;6131;56.420;15.548;2022-11-25T12:40:04;8.90;;;5.37;;
12135;SDS011;6131;56.420;15.548;2022-11-25T12:42:32;8.97;;;5.30;;
12135;SDS011;6131;56.420;15.548;2022-11-25T12:45:02;7.27;;;5.30;;
12135;SDS011;6131;56.420;15.548;2022-11-25T12:47:30;7.83;;;5.07;;
12135;SDS011;6131;56.420;15.548;2022-11-25T12:49:56;7.83;;;4.73;;
12135;SDS011;6131;56.420;15.548;2022-11-25T13:17:42;8.23;;;5.20;;
12135;SDS011;6131;56.420;15.548;2022-11-25T13:20:32;8.73;;;5.97;;
12135;SDS011;6131;56.420;15.548;2022-11-25T13:25:25;8.20;;;5.77;;
12135;SDS011;6131;56.420;15.548;2022-11-25T13:35:37;9.03;;;5.77;;
12135;SDS011;6131;56.420;15.548;2022-11-25T13:38:07;10.73;;;6.47;;
12135;SDS011;6131;56.420;15.548;2022-11-25T13:40:35;8.90;;;5.77;;
12135;SDS011;6131;56.420;15.548;2022-11-25T13:43:02;9.03;;;6.17;;
12135;SDS011;6131;56.420;15.548;2022-11-25T13:45:41;9.20;;;5.90;;
12135;SDS011;6131;56.420;15.548;2022-11-25T13:50:36;8.00;;;5.23;;
12135;SDS011;6131;56.420;15.548;2022-11-25T13:53:04;7.90;;;5.40;;
12135;SDS011;6131;56.420;15.548;2022-11-25T13:58:05;8.10;;;5.60;;
12135;SDS011;6131;56.420;15.548;2022-11-25T14:08:43;8.37;;;5.50;;
12135;SDS011;6131;56.420;15.548;2022-11-25T14:27:04;9.83;;;5.67;;
12135;SDS011;6131;56.420;15.548;2022-11-25T14:29:45;7.30;;;4.90;;
12135;SDS011;6131;56.420;15.548;2022-11-25T14:35:02;10.77;;;6.27;;
12135;SDS011;6131;56.420;15.548;2022-11-25T14:37:38;8.33;;;5.67;;
12135;SDS011;6131;56.420;15.548;2022-11-25T14:42:32;10.13;;;5.97;;
12135;SDS011;6131;56.420;15.548;2022-11-25T14:44:59;9.53;;;6.00;;
12135;SDS011;6131;56.420;15.548;2022-11-25T14:47:28;8.97;;;6.03;;
12135;SDS011;6131;56.420;15.548;2022-11-25T14:49:54;10.83;;;6.70;;
12135;SDS011;6131;56.420;15.548;2022-11-25T14:52:25;11.10;;;5.93;;
12135;SDS011;6131;56.420;15.548;2022-11-25T14:54:52;12.90;;;7.23;;
12135;SDS011;6131;56.420;15.548;2022-11-25T14:57:29;8.87;;;5.57;;
12135;SDS011;6131;56.420;15.548;2022-11-25T14:59:58;10.33;;;6.70;;
12135;SDS011;6131;56.420;15.548;2022-11-25T15:02:28;10.93;;;6.83;;
12135;SDS011;6131;56.420;15.548;2022-11-25T15:07:32;7.73;;;5.53;;
12135;SDS011;6131;56.420;15.548;2022-11-25T15:09:59;9.90;;;6.60;;
12135;SDS011;6131;56.420;15.548;2022-11-25T15:12:29;10.83;;;6.83;;
12135;SDS011;6131;56.420;15.548;2022-11-25T15:14:56;12.70;;;6.50;;
12135;SDS011;6131;56.420;15.548;2022-11-25T15:17:29;11.30;;;6.90;;
12135;SDS011;6131;56.420;15.548;2022-11-25T15:19:57;10.47;;;7.00;;
12135;SDS011;6131;56.420;15.548;2022-11-25T15:22:23;12.00;;;7.03;;
12135;SDS011;6131;56.420;15.548;2022-11-25T15:24:50;12.33;;;7.33;;
12135;SDS011;6131;56.420;15.548;2022-11-25T15:27:18;13.03;;;7.50;;
12135;SDS011;6131;56.420;15.548;2022-11-25T15:29:45;9.83;;;6.83;;
12135;SDS011;6131;56.420;15.548;2022-11-25T15:32:18;12.23;;;7.13;;
12135;SDS011;6131;56.420;15.548;2022-11-25T15:34:45;11.50;;;7.10;;
12135;SDS011;6131;56.420;15.548;2022-11-25T15:37:12;10.97;;;7.00;;
12135;SDS011;6131;56.420;15.548;2022-11-25T15:39:38;12.97;;;7.17;;
12135;SDS011;6131;56.420;15.548;2022-11-25T15:42:05;11.53;;;7.00;;
12135;SDS011;6131;56.420;15.548;2022-11-25T15:44:37;10.73;;;7.30;;
12135;SDS011;6131;56.420;15.548;2022-11-25T15:49:40;11.23;;;6.93;;
12135;SDS011;6131;56.420;15.548;2022-11-25T15:52:15;9.93;;;6.60;;
12135;SDS011;6131;56.420;15.548;2022-11-25T15:54:43;12.13;;;7.43;;
12135;SDS011;6131;56.420;15.548;2022-11-25T15:57:20;10.53;;;6.80;;
12135;SDS011;6131;56.420;15.548;2022-11-25T15:59:49;13.80;;;7.60;;
12135;SDS011;6131;56.420;15.548;2022-11-25T16:12:42;12.97;;;8.13;;
12135;SDS011;6131;56.420;15.548;2022-11-25T16:15:17;11.67;;;7.40;;
12135;SDS011;6131;56.420;15.548;2022-11-25T16:17:43;14.43;;;7.83;;
12135;SDS011;6131;56.420;15.548;2022-11-25T16:20:16;11.13;;;7.33;;
12135;SDS011;6131;56.420;15.548;2022-11-25T16:22:42;12.73;;;7.80;;
12135;SDS011;6131;56.420;15.548;2022-11-25T16:25:09;13.03;;;7.30;;
12135;SDS011;6131;56.420;15.548;2022-11-25T16:27:35;13.87;;;7.87;;
12135;SDS011;6131;56.420;15.548;2022-11-25T16:32:31;12.30;;;7.23;;
12135;SDS011;6131;56.420;15.548;2022-11-25T16:35:16;11.20;;;7.20;;
12135;SDS011;6131;56.420;15.548;2022-11-25T16:37:45;12.23;;;7.43;;
12135;SDS011;6131;56.420;15.548;2022-11-25T16:40:11;12.97;;;7.53;;
12135;SDS011;6131;56.420;15.548;2022-11-25T16:42:37;12.87;;;7.50;;
12135;SDS011;6131;56.420;15.548;2022-11-25T16:45:05;10.47;;;7.30;;
12135;SDS011;6131;56.420;15.548;2022-11-25T16:47:40;11.37;;;6.67;;
12135;SDS011;6131;56.420;15.548;2022-11-25T16:50:15;12.53;;;7.30;;
12135;SDS011;6131;56.420;15.548;2022-11-25T16:52:42;10.00;;;5.87;;
12135;SDS011;6131;56.420;15.548;2022-11-25T16:55:08;13.17;;;7.00;;
12135;SDS011;6131;56.420;15.548;2022-11-25T16:57:34;10.13;;;6.63;;
12135;SDS011;6131;56.420;15.548;2022-11-25T17:00:02;10.20;;;7.27;;